Time;durP1;ratioP1;P1;durP2;ratioP2;P2;SDS_P1;SDS_P2;PMS_P1;PMS_P2;Temp;Humidity;BMP_temperature;BMP_pressure;BME280_temperature;BME280_humidity;BME280_pressure;Samples;Min_cycle;Max_cycle;Signal;HPM_P1;HPM_P2
2021/01/29 00:02:13;;;;;;;5.63;1.60;;;;;;;1.14;98.26;99711.91;5037801;28;20219;-70
2021/01/29 00:04:39;;;;;;;3.03;1.30;;;;;;;1.25;97.76;99719.09;5021976;28;20190;-71
2021/01/29 00:07:10;;;;;;;4.10;1.80;;;;;;;1.21;97.34;99725.97;5054618;28;20860;-71
2021/01/29 00:09:35;;;;;;;3.30;1.60;;;;;;;0.99;98.82;99723.31;5023068;28;20229;-71
2021/01/29 00:12:01;;;;;;;3.17;1.53;;;;;;;1.08;98.78;99716.56;5072035;28;20720;-71
2021/01/29 00:14:27;;;;;;;2.67;1.30;;;;;;;0.99;99.45;99710.78;5071484;28;20539;-71
2021/01/29 00:16:52;;;;;;;3.30;1.30;;;;;;;1.16;98.44;99706.34;5021342;28;20230;-70
2021/01/29 00:19:20;;;;;;;3.07;1.40;;;;;;;1.10;99.42;99703.78;5054831;28;20207;-71
2021/01/29 00:21:48;;;;;;;1.77;1.40;;;;;;;1.18;98.95;99710.41;5056139;28;20218;-70
2021/01/29 00:24:14;;;;;;;4.00;1.27;;;;;;;1.04;98.53;99702.84;5051136;28;20290;-71
2021/01/29 00:26:39;;;;;;;2.77;1.40;;;;;;;1.07;98.27;99698.94;5018111;28;20231;-70
2021/01/29 00:29:07;;;;;;;1.43;1.33;;;;;;;1.17;97.60;99703.44;5046054;28;20698;-71
2021/01/29 00:31:33;;;;;;;3.07;1.40;;;;;;;1.21;98.21;99699.25;5037530;28;20230;-71
2021/01/29 00:33:58;;;;;;;2.20;1.20;;;;;;;1.04;97.90;99696.72;5038381;28;20182;-70
2021/01/29 00:36:26;;;;;;;3.40;1.50;;;;;;;1.18;98.46;99691.69;5070429;28;20219;-70
2021/01/29 00:38:52;;;;;;;2.97;1.37;;;;;;;1.22;97.79;99686.69;5071380;28;20203;-71
2021/01/29 00:41:21;;;;;;;1.90;1.30;;;;;;;1.21;97.94;99675.19;5055104;28;20238;-71
2021/01/29 00:43:49;;;;;;;2.70;1.40;;;;;;;1.15;97.57;99668.13;5040649;28;20183;-71
2021/01/29 00:46:19;;;;;;;3.27;1.40;;;;;;;1.12;97.72;99664.25;5038007;28;20229;-70
2021/01/29 00:48:50;;;;;;;4.10;1.60;;;;;;;0.97;98.82;99666.63;5071147;28;20183;-71
2021/01/29 00:51:15;;;;;;;2.80;1.67;;;;;;;1.01;98.72;99673.13;5072826;28;20680;-71
2021/01/29 00:53:41;;;;;;;2.00;1.50;;;;;;;1.01;99.35;99678.47;5054597;28;20178;-70
2021/01/29 00:56:15;;;;;;;2.60;1.37;;;;;;;1.12;98.81;99674.97;5038967;28;20241;-71
2021/01/29 00:58:57;;;;;;;1.90;1.27;;;;;;;1.03;98.91;99660.34;5060970;28;20218;-71
2021/01/29 01:01:42;;;;;;;3.93;1.63;;;;;;;1.13;98.51;99640.78;5042926;28;20272;-71
2021/01/29 01:04:08;;;;;;;2.27;1.33;;;;;;;1.10;98.39;99655.66;5038409;28;20191;-70
2021/01/29 01:06:34;;;;;;;1.60;1.20;;;;;;;1.11;98.92;99651.97;5069784;28;20214;-71
2021/01/29 01:09:20;;;;;;;3.70;1.50;;;;;;;1.06;100.00;99665.22;5043120;28;20213;-70
2021/01/29 01:11:46;;;;;;;3.47;1.57;;;;;;;1.01;99.78;99662.44;5054140;28;20227;-71
2021/01/29 01:14:30;;;;;;;2.23;1.40;;;;;;;1.22;99.59;99650.06;5056179;28;20971;-71
2021/01/29 01:17:18;;;;;;;4.50;1.60;;;;;;;1.31;98.14;99645.16;5051493;28;20284;-70
2021/01/29 01:20:07;;;;;;;1.37;1.23;;;;;;;1.10;98.44;99634.28;5057202;28;20207;-71
2021/01/29 01:22:33;;;;;;;3.73;1.67;;;;;;;1.12;99.42;99632.19;5037556;28;20219;-70
2021/01/29 01:25:21;;;;;;;2.97;1.60;;;;;;;1.13;98.74;99623.13;5059711;28;20589;-71
2021/01/29 01:27:48;;;;;;;3.20;1.57;;;;;;;1.20;98.62;99609.38;5053489;28;20178;-70
2021/01/29 01:30:52;;;;;;;3.50;1.60;;;;;;;1.25;97.56;99596.13;5050225;28;20305;-71
2021/01/29 01:33:20;;;;;;;1.80;1.43;;;;;;;1.09;98.17;99600.59;5037661;28;20198;-71
2021/01/29 01:36:13;;;;;;;3.30;1.30;;;;;;;1.12;97.70;99592.09;5043141;28;20223;-71
2021/01/29 01:38:43;;;;;;;2.60;1.60;;;;;;;1.14;98.03;99582.81;5039979;28;20222;-71
2021/01/29 01:41:12;;;;;;;2.40;1.60;;;;;;;1.13;97.82;99575.03;5069542;28;20226;-71
2021/01/29 01:43:49;;;;;;;2.00;1.47;;;;;;;1.14;97.94;99578.25;5039959;28;20617;-71
2021/01/29 01:46:35;;;;;;;2.47;1.53;;;;;;;1.09;97.48;99582.69;5069808;28;20218;-70
2021/01/29 01:49:22;;;;;;;3.47;1.53;;;;;;;1.12;97.11;99582.25;5057252;28;20241;-71
2021/01/29 01:52:37;;;;;;;5.37;1.70;;;;;;;1.12;96.96;99578.72;5058702;28;20653;-70
2021/01/29 01:55:29;;;;;;;1.77;1.33;;;;;;;1.25;96.70;99566.72;5061587;28;20343;-70
2021/01/29 01:58:11;;;;;;;1.43;1.27;;;;;;;1.26;97.21;99565.69;5028001;28;20228;-71
2021/01/29 02:00:59;;;;;;;3.47;1.40;;;;;;;1.20;96.73;99571.16;5041662;28;20226;-70
2021/01/29 02:03:44;;;;;;;3.83;1.63;;;;;;;1.16;97.58;99554.78;5056420;28;20193;-70
2021/01/29 02:06:29;;;;;;;3.03;1.70;;;;;;;1.17;97.24;99561.75;5037698;28;20273;-70
2021/01/29 02:09:27;;;;;;;3.30;1.47;;;;;;;1.13;97.20;99544.56;5034271;28;20203;-70
2021/01/29 02:12:00;;;;;;;3.53;1.67;;;;;;;1.26;97.07;99544.28;5038570;28;20222;-71
2021/01/29 02:14:52;;;;;;;2.53;1.50;;;;;;;1.18;97.31;99531.28;5069812;28;20191;-72
2021/01/29 02:17:48;;;;;;;4.87;1.60;;;;;;;1.28;97.46;99520.78;5039977;28;20222;-70
2021/01/29 02:21:11;;;;;;;2.87;1.70;;;;;;;1.09;97.50;99510.53;5070417;28;20309;-71
2021/01/29 02:24:20;;;;;;;3.93;1.70;;;;;;;1.12;97.98;99506.56;5072094;28;20684;-70
2021/01/29 02:27:18;;;;;;;3.43;1.60;;;;;;;1.17;97.43;99502.94;5069526;28;20313;-70
2021/01/29 02:30:04;;;;;;;4.60;1.80;;;;;;;1.15;97.53;99497.03;5054217;28;20211;-70
2021/01/29 02:33:03;;;;;;;3.50;1.80;;;;;;;1.03;97.71;99500.00;5029252;28;20243;-71
2021/01/29 02:35:56;;;;;;;3.63;1.27;;;;;;;1.05;97.39;99497.91;5065255;28;20685;-71
2021/01/29 02:38:38;;;;;;;2.00;1.50;;;;;;;1.09;97.81;99483.81;5049786;28;20602;-70
2021/01/29 02:41:10;;;;;;;3.00;2.00;;;;;;;1.15;97.79;99483.66;5049381;28;20281;-71
2021/01/29 02:43:54;;;;;;;2.77;1.53;;;;;;;1.05;97.92;99471.19;5033623;28;20187;-70
2021/01/29 02:47:01;;;;;;;3.83;1.60;;;;;;;1.01;97.43;99472.69;5063407;28;20254;-70
2021/01/29 02:49:58;;;;;;;2.17;1.60;;;;;;;1.01;97.62;99460.16;5049439;28;20256;-70
2021/01/29 02:52:56;;;;;;;2.50;1.70;;;;;;;1.09;97.58;99456.28;5049595;28;20218;-71
2021/01/29 02:56:06;;;;;;;2.53;1.40;;;;;;;1.15;97.75;99448.94;5012610;28;20223;-70
2021/01/29 02:58:53;;;;;;;3.20;1.57;;;;;;;1.19;97.10;99442.03;5046347;28;20222;-72
2021/01/29 03:01:48;;;;;;;2.90;1.97;;;;;;;1.14;97.01;99431.25;5060627;28;20246;-71
2021/01/29 03:05:07;;;;;;;4.00;1.50;;;;;;;1.16;96.42;99428.34;5053912;28;20199;-70
2021/01/29 03:08:07;;;;;;;3.80;1.30;;;;;;;1.16;96.54;99421.13;5042536;28;20215;-70
2021/01/29 03:11:32;;;;;;;3.70;1.40;;;;;;;1.12;97.25;99407.66;5072007;28;20935;-71
2021/01/29 03:14:31;;;;;;;3.20;1.40;;;;;;;1.16;96.15;99399.75;5044929;28;20205;-70
2021/01/29 03:17:21;;;;;;;4.43;1.60;;;;;;;1.20;95.80;99392.84;5058831;28;20233;-70
2021/01/29 03:20:36;;;;;;;2.37;1.30;;;;;;;1.09;96.37;99389.47;5059364;28;20647;-71
2021/01/29 03:23:27;;;;;;;2.77;1.27;;;;;;;1.06;96.98;99389.94;5059381;28;20290;-72
2021/01/29 03:26:37;;;;;;;3.60;1.40;;;;;;;1.12;96.57;99372.91;5070547;28;20716;-71
2021/01/29 03:29:22;;;;;;;1.47;1.10;;;;;;;1.12;96.50;99362.22;5057828;28;20291;-70
2021/01/29 03:32:08;;;;;;;3.13;1.33;;;;;;;1.12;96.11;99348.88;5053936;28;20230;-72
2021/01/29 03:35:01;;;;;;;2.70;1.47;;;;;;;1.08;95.94;99347.75;5039187;28;20688;-71
2021/01/29 03:38:30;;;;;;;2.70;1.13;;;;;;;1.02;95.76;99343.38;5072276;28;20222;-70
2021/01/29 03:41:21;;;;;;;3.53;1.20;;;;;;;1.14;95.33;99340.38;5047809;28;20306;-71
2021/01/29 03:44:22;;;;;;;3.63;0.97;;;;;;;0.99;94.85;99338.50;5042579;28;20319;-70
2021/01/29 03:47:14;;;;;;;3.63;1.20;;;;;;;1.10;95.07;99324.25;5071748;28;20236;-70
2021/01/29 03:50:37;;;;;;;1.80;1.07;;;;;;;0.96;94.61;99313.09;5058968;28;20252;-70
2021/01/29 03:53:27;;;;;;;3.93;1.20;;;;;;;1.04;94.34;99310.00;5073322;28;20214;-70
2021/01/29 03:56:28;;;;;;;3.50;1.43;;;;;;;0.97;94.25;99313.88;5071326;28;20735;-71
2021/01/29 03:59:22;;;;;;;2.23;1.00;;;;;;;0.95;94.64;99299.97;5065036;28;20772;-71
2021/01/29 04:02:22;;;;;;;1.53;1.20;;;;;;;0.99;93.96;99285.06;5071718;28;20223;-71
2021/01/29 04:05:19;;;;;;;2.17;1.10;;;;;;;1.02;93.99;99290.72;5042941;28;20246;-71
2021/01/29 04:08:10;;;;;;;2.27;1.03;;;;;;;1.11;93.69;99277.78;5046937;28;20301;-71
2021/01/29 04:10:55;;;;;;;2.10;1.10;;;;;;;1.06;94.24;99264.31;5056109;28;20296;-70
2021/01/29 04:13:48;;;;;;;1.90;1.20;;;;;;;1.17;93.50;99257.03;5043860;28;20191;-71
2021/01/29 04:16:23;;;;;;;3.67;1.60;;;;;;;1.09;92.95;99258.50;5053457;28;20291;-71
2021/01/29 04:18:53;;;;;;;1.57;1.13;;;;;;;1.15;93.32;99253.81;5039399;28;20203;-70
2021/01/29 04:21:38;;;;;;;2.27;1.20;;;;;;;1.11;93.08;99256.41;5054962;28;20219;-71
2021/01/29 04:24:15;;;;;;;1.33;1.13;;;;;;;1.10;92.48;99249.41;5036317;28;20648;-71
2021/01/29 04:26:58;;;;;;;2.40;1.10;;;;;;;1.20;92.65;99245.81;5018776;28;20226;-70
2021/01/29 04:29:30;;;;;;;3.13;1.17;;;;;;;1.17;92.64;99227.63;5048936;28;20623;-68
2021/01/29 04:31:58;;;;;;;2.50;1.00;;;;;;;1.12;92.63;99221.41;5036416;28;20254;-69
2021/01/29 04:34:27;;;;;;;3.93;1.10;;;;;;;1.18;92.31;99221.22;5021681;28;20198;-69
2021/01/29 04:36:53;;;;;;;2.43;1.13;;;;;;;1.16;92.38;99211.84;5020733;28;20223;-69
2021/01/29 04:39:20;;;;;;;3.30;1.27;;;;;;;1.20;92.47;99208.41;5021310;28;20194;-69
2021/01/29 04:41:56;;;;;;;1.53;1.10;;;;;;;1.12;92.39;99200.03;5046608;28;20215;-69
2021/01/29 04:44:42;;;;;;;1.73;1.00;;;;;;;1.04;92.87;99207.66;5052320;28;20178;-69
2021/01/29 04:47:35;;;;;;;1.67;0.87;;;;;;;1.10;92.59;99198.63;5029069;28;20314;-70
2021/01/29 04:50:16;;;;;;;1.90;0.90;;;;;;;1.26;92.81;99196.75;5044690;28;20752;-69
2021/01/29 04:53:06;;;;;;;2.17;0.90;;;;;;;1.28;91.47;99189.28;5050988;28;20348;-69
2021/01/29 04:55:50;;;;;;;1.03;0.80;;;;;;;1.28;91.49;99194.63;5063402;28;20264;-69
2021/01/29 04:58:26;;;;;;;1.03;0.90;;;;;;;1.30;90.49;99189.00;5070396;28;20222;-70
2021/01/29 05:01:52;;;;;;;1.13;0.90;;;;;;;1.25;90.15;99179.06;5074691;28;20260;-69
2021/01/29 05:05:05;;;;;;;1.53;0.80;;;;;;;1.33;89.51;99177.81;5076400;28;20251;-70
2021/01/29 05:08:13;;;;;;;1.83;0.87;;;;;;;1.23;89.69;99175.84;5080391;28;20857;-69
2021/01/29 05:11:01;;;;;;;0.90;0.73;;;;;;;1.18;89.81;99178.44;5065627;28;20617;-69
2021/01/29 05:13:40;;;;;;;1.83;0.67;;;;;;;1.24;90.69;99166.75;5091070;28;20553;-70
2021/01/29 05:16:16;;;;;;;2.53;1.23;;;;;;;1.19;89.84;99164.03;5074235;28;20699;-70
2021/01/29 05:19:14;;;;;;;1.07;0.80;;;;;;;1.08;90.11;99158.00;5073268;28;20206;-69
2021/01/29 05:22:05;;;;;;;1.63;0.67;;;;;;;1.08;89.53;99155.31;5090663;28;20226;-69
2021/01/29 05:24:53;;;;;;;2.53;1.10;;;;;;;1.12;90.12;99145.75;5079374;28;20256;-71
2021/01/29 05:27:26;;;;;;;2.23;1.07;;;;;;;1.29;89.72;99148.09;5066949;28;20700;-70
2021/01/29 05:30:06;;;;;;;2.03;1.60;;;;;;;1.29;89.24;99131.28;5042814;28;20627;-70
2021/01/29 05:33:04;;;;;;;0.70;0.60;;;;;;;1.19;89.83;99115.94;5069635;28;20222;-70
2021/01/29 05:35:38;;;;;;;1.50;0.80;;;;;;;1.27;88.99;99102.09;5050311;28;20672;-70
2021/01/29 05:38:32;;;;;;;0.80;0.70;;;;;;;1.20;88.96;99114.84;5046417;28;20232;-70
2021/01/29 05:41:23;;;;;;;1.30;0.93;;;;;;;1.13;88.80;99109.97;5069685;28;20259;-70
2021/01/29 05:44:11;;;;;;;0.73;0.73;;;;;;;1.11;89.03;99090.69;5070541;28;20656;-72
2021/01/29 05:47:05;;;;;;;4.27;2.17;;;;;;;1.11;89.18;99090.69;5033877;28;20219;-69
2021/01/29 05:49:55;;;;;;;2.30;1.03;;;;;;;1.14;90.43;99089.13;5059552;28;20249;-68
2021/01/29 05:52:48;;;;;;;0.87;0.83;;;;;;;1.07;89.17;99084.25;5048692;28;20219;-69
2021/01/29 05:55:36;;;;;;;1.97;0.80;;;;;;;1.14;88.75;99086.47;5034783;28;20206;-69
2021/01/29 05:58:22;;;;;;;1.97;0.70;;;;;;;1.17;88.47;99072.59;5036229;28;20692;-69
2021/01/29 06:00:58;;;;;;;2.40;0.77;;;;;;;1.26;88.13;99065.75;5065852;28;20222;-69
2021/01/29 06:03:32;;;;;;;1.43;1.10;;;;;;;1.19;86.99;99059.78;5056827;28;20183;-70
2021/01/29 06:06:19;;;;;;;1.93;0.70;;;;;;;1.17;88.46;99067.25;5052419;28;20218;-69
2021/01/29 06:08:57;;;;;;;2.30;0.90;;;;;;;1.16;88.39;99056.81;5078511;28;20183;-69
2021/01/29 06:11:58;;;;;;;0.73;0.73;;;;;;;1.26;88.80;99049.72;5049535;28;20227;-69
2021/01/29 06:14:57;;;;;;;1.47;0.80;;;;;;;1.14;87.98;99045.56;5015784;28;20338;-69
2021/01/29 06:17:43;;;;;;;5.20;2.53;;;;;;;1.19;88.00;99030.41;5057916;28;20230;-69
2021/01/29 06:20:19;;;;;;;2.57;0.87;;;;;;;1.21;87.98;99033.63;5060882;28;20210;-68
2021/01/29 06:23:23;;;;;;;2.17;0.90;;;;;;;1.29;87.09;99027.00;5055827;28;20734;-69
2021/01/29 06:25:57;;;;;;;1.83;0.87;;;;;;;1.07;86.36;99020.09;5047451;28;20207;-69
2021/01/29 06:28:44;;;;;;;2.10;0.90;;;;;;;1.09;87.61;99024.13;5056111;28;20270;-69
2021/01/29 06:31:33;;;;;;;1.70;0.80;;;;;;;1.10;86.77;99015.06;5072474;28;20222;-69
2021/01/29 06:34:02;;;;;;;0.87;0.80;;;;;;;1.12;87.44;99012.13;5060068;28;20198;-69
2021/01/29 06:36:46;;;;;;;3.67;1.63;;;;;;;1.16;87.25;99012.19;5069542;28;20269;-69
2021/01/29 06:39:24;;;;;;;1.37;0.90;;;;;;;1.25;87.41;99017.88;5026297;28;20615;-69
2021/01/29 06:41:59;;;;;;;1.33;0.87;;;;;;;1.19;86.48;99008.19;5040059;28;20218;-69
2021/01/29 06:44:40;;;;;;;2.40;0.83;;;;;;;1.35;86.49;99008.06;5034573;28;20244;-69
2021/01/29 06:47:13;;;;;;;3.07;1.10;;;;;;;1.38;85.94;99023.63;5073411;28;20752;-69
2021/01/29 06:50:09;;;;;;;1.70;1.13;;;;;;;1.22;85.08;99002.34;5040988;28;20205;-69
2021/01/29 06:52:53;;;;;;;1.03;0.93;;;;;;;1.13;85.91;99004.66;5074533;28;20210;-70
2021/01/29 06:55:33;;;;;;;2.10;0.83;;;;;;;1.17;85.62;99000.44;5072342;28;20243;-69
2021/01/29 06:58:10;;;;;;;3.73;1.10;;;;;;;1.15;85.83;98997.22;5072908;28;20210;-69
2021/01/29 07:00:57;;;;;;;1.50;1.00;;;;;;;1.22;85.70;98988.97;5078552;28;20229;-69
2021/01/29 07:04:08;;;;;;;1.70;0.80;;;;;;;1.13;85.87;98992.38;5053403;28;20244;-69
2021/01/29 07:07:06;;;;;;;1.53;1.00;;;;;;;1.14;85.91;98984.91;5053042;28;20211;-69
2021/01/29 07:09:57;;;;;;;1.90;0.90;;;;;;;1.13;86.28;98987.03;5038912;28;20844;-69
2021/01/29 07:12:49;;;;;;;1.80;0.90;;;;;;;1.22;85.90;98972.94;5052737;28;20264;-69
2021/01/29 07:15:34;;;;;;;1.10;0.80;;;;;;;1.28;86.87;98975.41;5051835;28;20205;-69
2021/01/29 07:18:30;;;;;;;1.83;1.10;;;;;;;1.20;85.86;98975.06;5053083;28;20302;-69
2021/01/29 07:21:17;;;;;;;3.30;1.40;;;;;;;1.29;86.47;98969.00;5028639;28;20246;-68
2021/01/29 07:23:52;;;;;;;2.73;1.10;;;;;;;1.21;86.91;98972.13;5039357;28;20175;-69
2021/01/29 07:26:35;;;;;;;1.97;1.40;;;;;;;1.22;87.17;98960.38;5036394;28;20296;-69
2021/01/29 07:29:08;;;;;;;2.53;1.23;;;;;;;1.22;87.18;98944.34;5064809;28;20197;-69
2021/01/29 07:31:53;;;;;;;2.20;1.30;;;;;;;1.27;87.67;98941.72;5056309;28;20310;-70
2021/01/29 07:34:31;;;;;;;3.10;1.23;;;;;;;1.35;86.85;98943.91;5057220;28;20179;-70
2021/01/29 07:37:17;;;;;;;2.77;1.10;;;;;;;1.16;87.12;98934.66;5072588;28;20887;-69
2021/01/29 07:39:55;;;;;;;1.90;1.30;;;;;;;1.28;87.46;98932.66;5056262;28;20218;-70
2021/01/29 07:42:59;;;;;;;2.33;1.23;;;;;;;1.29;87.19;98936.91;5072026;28;20261;-70
2021/01/29 07:46:30;;;;;;;3.47;1.53;;;;;;;1.32;87.53;98923.06;5070895;28;20352;-69
2021/01/29 07:49:11;;;;;;;2.40;1.17;;;;;;;1.34;87.46;98915.56;5030913;28;20196;-69
2021/01/29 07:51:53;;;;;;;1.87;1.10;;;;;;;1.30;87.44;98903.78;5072587;28;20246;-69
2021/01/29 07:54:46;;;;;;;2.03;1.00;;;;;;;1.23;88.35;98903.19;5055513;28;20179;-70
2021/01/29 07:57:23;;;;;;;2.37;1.43;;;;;;;1.30;88.03;98895.78;5072960;28;20250;-69
2021/01/29 08:00:17;;;;;;;2.10;1.23;;;;;;;1.36;89.24;98907.31;5060213;28;20232;-70
2021/01/29 08:03:07;;;;;;;1.77;1.20;;;;;;;1.22;89.40;98885.53;5069097;28;20860;-70
2021/01/29 08:05:36;;;;;;;2.43;1.30;;;;;;;1.24;89.95;98888.75;5073030;28;20206;-70
2021/01/29 08:08:06;;;;;;;2.73;1.70;;;;;;;1.34;90.22;98894.19;5041668;28;20647;-70
2021/01/29 08:10:32;;;;;;;1.90;1.27;;;;;;;1.42;90.42;98896.38;5058551;28;20683;-70
2021/01/29 08:13:50;;;;;;;2.97;1.70;;;;;;;1.34;91.19;98894.19;5075547;28;20203;-69
2021/01/29 08:16:40;;;;;;;3.57;1.87;;;;;;;1.16;91.26;98878.53;5033159;28;20232;-71
2021/01/29 08:19:11;;;;;;;1.50;1.33;;;;;;;1.35;91.56;98885.09;5074914;28;20218;-70
2021/01/29 08:22:14;;;;;;;2.87;1.53;;;;;;;1.35;92.08;98885.09;5074010;28;20233;-70
2021/01/29 08:25:17;;;;;;;2.77;1.70;;;;;;;1.43;92.60;98876.63;5091247;28;20235;-69
2021/01/29 08:28:01;;;;;;;3.87;1.90;;;;;;;1.39;92.51;98886.22;5091417;28;20698;-70
2021/01/29 08:31:04;;;;;;;2.27;1.90;;;;;;;1.39;93.03;98886.22;5075857;28;20748;-70
2021/01/29 08:34:07;;;;;;;2.47;1.80;;;;;;;1.28;94.01;98873.84;5042946;28;20211;-70
2021/01/29 08:36:36;;;;;;;3.13;1.83;;;;;;;1.39;95.52;98880.88;5050419;28;20223;-69
2021/01/29 08:39:17;;;;;;;2.70;1.53;;;;;;;1.45;96.41;98879.00;5052658;28;20203;-70
2021/01/29 08:41:53;;;;;;;1.80;1.63;;;;;;;1.33;95.91;98870.38;5033106;28;20230;-69
2021/01/29 08:44:56;;;;;;;4.63;1.90;;;;;;;1.26;97.18;98867.94;5050614;28;20179;-70
2021/01/29 08:47:39;;;;;;;1.70;1.37;;;;;;;1.31;97.32;98865.28;5034064;28;20219;-70
2021/01/29 08:50:33;;;;;;;2.97;1.60;;;;;;;1.23;98.46;98865.78;5034794;28;20214;-69
2021/01/29 08:53:07;;;;;;;2.50;1.50;;;;;;;1.23;99.04;98873.78;5024091;28;20218;-70
2021/01/29 08:56:00;;;;;;;3.13;1.83;;;;;;;1.12;100.00;98873.97;5036396;28;20214;-69
2021/01/29 08:58:44;;;;;;;2.00;1.80;;;;;;;1.24;100.00;98875.38;5073512;28;20713;-70
2021/01/29 09:01:28;;;;;;;3.30;1.70;;;;;;;1.11;100.00;98874.22;5053673;28;20231;-70
2021/01/29 09:04:04;;;;;;;2.93;1.70;;;;;;;0.99;100.00;98878.91;5070693;28;20304;-70
2021/01/29 09:06:37;;;;;;;2.47;1.70;;;;;;;1.12;100.00;98873.16;5037994;28;20256;-69
2021/01/29 09:09:06;;;;;;;2.57;1.70;;;;;;;1.13;100.00;98872.09;5054445;28;20167;-70
2021/01/29 09:11:57;;;;;;;2.27;1.70;;;;;;;0.96;100.00;98869.56;5073115;28;20260;-70
2021/01/29 09:14:31;;;;;;;2.50;1.80;;;;;;;1.05;100.00;98877.94;5034891;28;20187;-71
2021/01/29 09:17:19;;;;;;;2.17;1.70;;;;;;;1.10;100.00;98860.06;5033300;28;20234;-69
2021/01/29 09:19:54;;;;;;;2.47;1.93;;;;;;;1.18;100.00;98862.25;5018312;28;20768;-70
2021/01/29 09:22:29;;;;;;;2.53;2.00;;;;;;;1.10;100.00;98859.25;5017762;28;20269;-70
2021/01/29 09:25:12;;;;;;;2.10;1.90;;;;;;;1.15;100.00;98855.56;5033669;28;20187;-70
2021/01/29 09:27:50;;;;;;;3.20;2.30;;;;;;;0.98;100.00;98851.41;5035129;28;20200;-70
2021/01/29 09:30:35;;;;;;;2.57;2.10;;;;;;;1.12;100.00;98846.44;5037439;28;20199;-71
2021/01/29 09:33:14;;;;;;;2.87;2.60;;;;;;;1.11;100.00;98842.16;5070636;28;20206;-70
2021/01/29 09:35:55;;;;;;;3.20;2.30;;;;;;;1.03;100.00;98846.13;5069558;28;20213;-70
2021/01/29 09:38:29;;;;;;;2.87;2.37;;;;;;;1.12;100.00;98846.44;5071345;28;20569;-70
2021/01/29 09:41:17;;;;;;;3.77;2.20;;;;;;;1.02;100.00;98851.69;5070973;28;20256;-70
2021/01/29 09:44:03;;;;;;;4.10;2.43;;;;;;;1.26;100.00;98838.53;5070425;28;20198;-70
2021/01/29 09:46:31;;;;;;;3.37;3.07;;;;;;;1.27;100.00;98834.78;5020696;28;20222;-70
2021/01/29 09:49:00;;;;;;;3.83;2.83;;;;;;;1.13;100.00;98842.72;5020647;28;20187;-70
2021/01/29 09:52:02;;;;;;;2.90;2.70;;;;;;;1.22;100.00;98836.63;5036925;28;20245;-70
2021/01/29 09:55:08;;;;;;;3.00;2.57;;;;;;;1.18;100.00;98839.00;5053459;28;20721;-70
2021/01/29 09:57:44;;;;;;;4.37;2.93;;;;;;;1.22;100.00;98837.41;5066970;28;20234;-71
2021/01/29 10:00:16;;;;;;;5.47;3.00;;;;;;;1.19;100.00;98848.66;5051477;28;20203;-71
2021/01/29 10:02:56;;;;;;;2.57;2.37;;;;;;;1.16;100.00;98838.44;5052374;28;20175;-69
2021/01/29 10:05:46;;;;;;;4.07;2.53;;;;;;;1.19;100.00;98831.78;5047535;28;20277;-69
2021/01/29 10:08:38;;;;;;;5.30;2.80;;;;;;;1.17;100.00;98833.91;5058020;28;20274;-68
2021/01/29 10:11:10;;;;;;;4.03;2.60;;;;;;;1.15;100.00;98831.50;5059185;28;20289;-70
2021/01/29 10:14:07;;;;;;;3.33;2.60;;;;;;;1.22;100.00;98831.28;5074519;28;20284;-68
2021/01/29 10:16:37;;;;;;;3.00;2.47;;;;;;;1.18;100.00;98830.19;5084813;28;20372;-69
2021/01/29 10:19:17;;;;;;;3.93;2.30;;;;;;;1.00;100.00;98827.91;5061788;28;20331;-68
2021/01/29 10:21:58;;;;;;;3.43;2.73;;;;;;;1.14;100.00;98821.88;5077257;28;20259;-69
2021/01/29 10:24:48;;;;;;;4.10;2.53;;;;;;;1.18;100.00;98819.50;5094905;28;20200;-69
2021/01/29 10:27:21;;;;;;;3.30;2.57;;;;;;;1.22;100.00;98816.03;5077011;28;20225;-69
2021/01/29 10:29:49;;;;;;;2.50;2.20;;;;;;;1.15;100.00;98812.81;5069191;28;20256;-69
2021/01/29 10:32:19;;;;;;;3.77;2.63;;;;;;;1.24;100.00;98800.53;5043671;28;20267;-69
2021/01/29 10:34:53;;;;;;;2.70;2.27;;;;;;;1.18;100.00;98806.94;5028047;28;20698;-69
2021/01/29 10:37:31;;;;;;;2.93;2.30;;;;;;;1.24;100.00;98800.53;5024864;28;20800;-70
2021/01/29 10:40:24;;;;;;;3.70;2.93;;;;;;;1.12;100.00;98809.84;5057050;28;20202;-69
2021/01/29 10:42:59;;;;;;;3.13;2.60;;;;;;;1.23;100.00;98801.63;5059110;28;20215;-69
2021/01/29 10:45:46;;;;;;;3.97;2.50;;;;;;;1.28;100.00;98796.31;5038874;28;20254;-69
2021/01/29 10:48:22;;;;;;;3.77;2.90;;;;;;;1.38;100.00;98799.03;5073766;28;20671;-70
2021/01/29 10:51:01;;;;;;;2.83;2.30;;;;;;;1.35;100.00;98804.88;5056411;28;20309;-69
2021/01/29 10:53:27;;;;;;;3.27;2.60;;;;;;;1.44;100.00;98797.19;5042230;28;20652;-70
2021/01/29 10:55:59;;;;;;;3.37;2.80;;;;;;;1.44;100.00;98792.66;5058603;28;20230;-69
2021/01/29 10:58:48;;;;;;;2.80;2.40;;;;;;;1.21;100.00;98793.06;5025414;28;20207;-69
2021/01/29 11:01:33;;;;;;;2.30;2.00;;;;;;;1.30;100.00;98786.16;5066939;28;20215;-69
2021/01/29 11:04:15;;;;;;;3.00;2.40;;;;;;;1.23;100.00;98785.59;5064614;28;20617;-69
2021/01/29 11:06:50;;;;;;;3.77;2.50;;;;;;;1.41;100.00;98787.84;5023907;28;20620;-69
2021/01/29 11:09:21;;;;;;;5.13;3.70;;;;;;;1.13;100.00;98785.50;5040490;28;20684;-69
2021/01/29 11:11:56;;;;;;;2.60;2.20;;;;;;;1.26;100.00;98793.09;5039861;28;20218;-69
2021/01/29 11:14:22;;;;;;;2.23;1.93;;;;;;;1.28;100.00;98793.66;5057346;28;20187;-70
2021/01/29 11:16:55;;;;;;;3.83;2.00;;;;;;;1.21;100.00;98787.72;5073506;28;20215;-71
2021/01/29 11:19:41;;;;;;;2.47;1.90;;;;;;;1.12;100.00;98782.28;5041133;28;20226;-70
2021/01/29 11:22:30;;;;;;;3.30;2.17;;;;;;;1.21;100.00;98782.38;5039607;28;20293;-70
2021/01/29 11:25:34;;;;;;;3.57;2.30;;;;;;;1.15;100.00;98767.38;5059198;28;20175;-72
2021/01/29 11:28:09;;;;;;;3.03;1.93;;;;;;;1.15;100.00;98771.91;5056297;28;20684;-71
2021/01/29 11:31:16;;;;;;;4.00;2.30;;;;;;;1.21;100.00;98771.69;5039506;28;20683;-71
2021/01/29 11:33:44;;;;;;;2.10;1.80;;;;;;;0.98;100.00;98770.47;5060998;28;20560;-72
2021/01/29 11:36:11;;;;;;;3.57;2.60;;;;;;;1.14;100.00;98764.97;5040654;28;20223;-72
2021/01/29 11:38:58;;;;;;;2.23;2.03;;;;;;;1.11;100.00;98764.66;5058400;28;20256;-71
2021/01/29 11:41:51;;;;;;;2.87;2.23;;;;;;;1.16;100.00;98763.63;5069960;28;20309;-71
2021/01/29 11:44:18;;;;;;;3.20;2.00;;;;;;;1.08;100.00;98759.81;5065193;28;20195;-71
2021/01/29 11:46:52;;;;;;;3.80;2.20;;;;;;;1.15;100.00;98754.00;5037436;28;20238;-73
2021/01/29 11:49:29;;;;;;;2.30;2.07;;;;;;;1.29;100.00;98763.16;5077463;28;20214;-70
2021/01/29 11:52:16;;;;;;;2.37;2.03;;;;;;;1.34;100.00;98755.19;5039795;28;20268;-70
2021/01/29 11:54:50;;;;;;;3.13;2.10;;;;;;;1.22;100.00;98751.09;5019843;28;20179;-71
2021/01/29 11:57:34;;;;;;;3.00;1.90;;;;;;;1.16;100.00;98747.59;5036097;28;20234;-71
2021/01/29 12:00:06;;;;;;;2.60;1.83;;;;;;;1.26;100.00;98736.97;5072588;28;20214;-70
2021/01/29 12:03:11;;;;;;;3.43;1.97;;;;;;;1.34;100.00;98743.69;5039752;28;20249;-70
2021/01/29 12:05:53;;;;;;;2.80;1.90;;;;;;;1.38;100.00;98740.22;5038804;28;20211;-71
2021/01/29 12:08:34;;;;;;;3.23;1.53;;;;;;;1.42;100.00;98730.59;5058629;28;20649;-71
2021/01/29 12:11:22;;;;;;;2.80;1.90;;;;;;;1.31;100.00;98731.63;5056971;28;20230;-71
2021/01/29 12:13:55;;;;;;;2.10;1.40;;;;;;;1.40;100.00;98731.94;5043107;28;20655;-71
2021/01/29 12:16:25;;;;;;;2.40;1.57;;;;;;;1.24;100.00;98728.38;5039863;28;20246;-71
2021/01/29 12:18:51;;;;;;;2.03;1.67;;;;;;;1.04;100.00;98734.69;5056630;28;20264;-71
2021/01/29 12:21:29;;;;;;;2.13;1.90;;;;;;;1.17;100.00;98719.00;5040490;28;20218;-71
2021/01/29 12:24:09;;;;;;;1.73;1.60;;;;;;;1.22;100.00;98722.50;5073456;28;20606;-71
2021/01/29 12:26:56;;;;;;;2.03;1.30;;;;;;;1.07;100.00;98726.16;5041549;28;20250;-71
2021/01/29 12:29:40;;;;;;;2.07;1.30;;;;;;;1.14;100.00;98719.53;5080406;28;20213;-71
2021/01/29 12:32:20;;;;;;;1.70;1.47;;;;;;;1.08;100.00;98717.91;5070741;28;20219;-72
2021/01/29 12:34:51;;;;;;;1.97;1.60;;;;;;;1.10;100.00;98709.59;5070498;28;20578;-72
2021/01/29 12:37:37;;;;;;;2.00;1.27;;;;;;;0.87;100.00;98712.69;5039361;28;20294;-71
2021/01/29 12:40:07;;;;;;;1.27;1.03;;;;;;;0.95;100.00;98705.00;5022492;28;20582;-71
2021/01/29 12:42:39;;;;;;;1.53;1.17;;;;;;;1.05;100.00;98712.25;5054950;28;20220;-71
2021/01/29 12:45:26;;;;;;;2.07;1.30;;;;;;;0.99;100.00;98705.25;5054709;28;20172;-72
2021/01/29 12:47:57;;;;;;;1.57;1.30;;;;;;;0.92;100.00;98702.03;5071561;28;20194;-71
2021/01/29 12:50:31;;;;;;;1.37;1.27;;;;;;;0.81;100.00;98706.50;5056134;28;20217;-70
2021/01/29 12:53:02;;;;;;;1.30;1.20;;;;;;;0.90;100.00;98696.16;5062113;28;20639;-70
2021/01/29 12:55:34;;;;;;;2.40;1.10;;;;;;;0.94;100.00;98699.91;5053165;28;20218;-70
2021/01/29 12:58:09;;;;;;;2.17;1.50;;;;;;;0.93;100.00;98698.28;5042563;28;20214;-69